Time;durP1;ratioP1;P1;durP2;ratioP2;P2;SDS_P1;SDS_P2;PMS_P1;PMS_P2;Temp;Humidity;BMP_temperature;BMP_pressure;BME280_temperature;BME280_humidity;BME280_pressure;Samples;Min_cycle;Max_cycle;Signal;HPM_P1;HPM_P2
2023/04/24 00:00:31;;;;;;;3.40;2.25;;;15.90;99.90;;;;;;5112045;28;20016;-72
2023/04/24 00:02:57;;;;;;;5.63;2.65;;;15.90;99.90;;;;;;5091292;28;20384;-72
2023/04/24 00:05:24;;;;;;;4.47;2.42;;;15.80;99.90;;;;;;5091194;28;20388;-71
2023/04/24 00:07:53;;;;;;;4.85;2.75;;;15.80;99.90;;;;;;5089315;28;20028;-71
2023/04/24 00:10:19;;;;;;;4.78;2.45;;;15.80;99.90;;;;;;5106436;28;20472;-71
2023/04/24 00:12:45;;;;;;;6.45;2.38;;;15.70;99.90;;;;;;5091320;28;20044;-71
2023/04/24 00:15:11;;;;;;;5.53;2.50;;;15.70;99.90;;;;;;5091163;28;20429;-72
2023/04/24 00:17:37;;;;;;;5.82;2.10;;;15.70;99.90;;;;;;5090929;28;20115;-73
2023/04/24 00:20:06;;;;;;;6.97;2.80;;;15.70;99.90;;;;;;5091219;28;20028;-72
2023/04/24 00:22:33;;;;;;;4.47;2.63;;;15.70;99.90;;;;;;5090654;28;20051;-72
2023/04/24 00:24:59;;;;;;;4.07;2.45;;;15.70;99.90;;;;;;5091002;28;20031;-72
2023/04/24 00:27:25;;;;;;;4.28;2.22;;;15.70;99.90;;;;;;5090897;28;20480;-71
2023/04/24 00:29:51;;;;;;;4.60;2.30;;;15.70;99.90;;;;;;5090728;28;20028;-71
2023/04/24 00:32:17;;;;;;;5.07;2.50;;;15.60;99.90;;;;;;5105560;28;20332;-72
2023/04/24 00:34:43;;;;;;;4.43;2.58;;;15.60;99.90;;;;;;5110940;28;20028;-71
2023/04/24 00:37:09;;;;;;;4.60;2.93;;;15.60;99.90;;;;;;5109454;28;20489;-72
2023/04/24 00:39:35;;;;;;;6.57;3.30;;;15.60;99.90;;;;;;5110908;28;20655;-71
2023/04/24 00:42:01;;;;;;;4.65;2.65;;;15.60;99.90;;;;;;5111131;28;20027;-73
2023/04/24 00:44:28;;;;;;;6.37;2.37;;;15.60;99.90;;;;;;5111375;28;20422;-72
2023/04/24 00:46:55;;;;;;;4.70;2.40;;;15.60;99.90;;;;;;5110987;28;20051;-72
2023/04/24 00:49:22;;;;;;;5.57;2.60;;;15.60;99.90;;;;;;5110786;28;20030;-72
2023/04/24 00:51:49;;;;;;;4.78;2.75;;;15.70;99.90;;;;;;5113345;28;20102;-71
2023/04/24 00:54:15;;;;;;;;;;;15.70;99.90;;;;;;5115207;28;20471;-71
2023/04/24 00:56:42;;;;;;;4.30;2.30;;;15.60;99.90;;;;;;5114960;28;19955;-72
2023/04/24 00:59:09;;;;;;;7.60;2.50;;;15.60;99.90;;;;;;5114842;28;20077;-71
2023/04/24 01:01:36;;;;;;;9.05;2.58;;;15.60;99.90;;;;;;5114658;28;20103;-71
2023/04/24 01:04:02;;;;;;;3.63;2.10;;;15.50;99.90;;;;;;5114799;28;20197;-71
2023/04/24 01:06:31;;;;;;;6.05;2.30;;;15.40;99.90;;;;;;5114809;28;20080;-71
2023/04/24 01:08:58;;;;;;;3.42;2.10;;;15.40;99.90;;;;;;5114797;28;20111;-73
2023/04/24 01:11:26;;;;;;;3.85;2.35;;;15.50;99.90;;;;;;5115062;28;20016;-72
2023/04/24 01:13:52;;;;;;;4.63;2.40;;;15.50;99.90;;;;;;5114682;28;20023;-72
2023/04/24 01:16:20;;;;;;;4.03;2.63;;;15.50;99.90;;;;;;5114536;28;20494;-71
2023/04/24 01:18:48;;;;;;;3.60;2.60;;;15.50;99.90;;;;;;5114350;28;20060;-72
2023/04/24 01:21:18;;;;;;;4.30;2.42;;;15.50;99.90;;;;;;5114618;28;20111;-71
2023/04/24 01:23:45;;;;;;;3.63;2.25;;;15.50;99.90;;;;;;5114536;28;20035;-72
2023/04/24 01:26:13;;;;;;;4.93;2.33;;;15.40;99.90;;;;;;5114590;28;20498;-73
2023/04/24 01:28:39;;;;;;;3.72;2.20;;;15.40;99.90;;;;;;5114739;28;20454;-73
2023/04/24 01:31:06;;;;;;;3.28;2.17;;;15.40;99.90;;;;;;5114331;28;20076;-72
2023/04/24 01:33:33;;;;;;;3.78;2.25;;;15.40;99.90;;;;;;5114612;28;20054;-73
2023/04/24 01:35:59;;;;;;;5.47;2.10;;;15.50;99.90;;;;;;5113898;27;20035;-72
2023/04/24 01:38:25;;;;;;;4.57;2.70;;;15.50;99.90;;;;;;5114244;28;20064;-72
2023/04/24 01:40:52;;;;;;;3.58;2.22;;;15.50;99.90;;;;;;5113973;28;20024;-73
2023/04/24 01:43:19;;;;;;;5.60;2.53;;;15.40;99.90;;;;;;5114045;28;20588;-73
2023/04/24 01:45:51;;;;;;;6.00;2.50;;;15.30;99.90;;;;;;5113860;28;20108;-73
2023/04/24 01:48:17;;;;;;;3.97;2.40;;;15.30;99.90;;;;;;5113896;28;20071;-72
2023/04/24 01:50:43;;;;;;;5.07;2.35;;;15.30;99.90;;;;;;5114153;28;20165;-72
2023/04/24 01:53:10;;;;;;;4.87;2.50;;;15.30;99.90;;;;;;5112130;28;20027;-74
2023/04/24 01:55:36;;;;;;;4.07;2.30;;;15.30;99.90;;;;;;5113662;28;20069;-72
2023/04/24 01:58:02;;;;;;;3.93;1.97;;;15.30;99.90;;;;;;5113804;28;20024;-73
2023/04/24 02:00:28;;;;;;;5.57;1.85;;;15.40;99.90;;;;;;5114134;28;20398;-74
2023/04/24 02:02:54;;;;;;;2.87;1.77;;;15.40;99.90;;;;;;5113502;28;20111;-72
2023/04/24 02:05:20;;;;;;;4.97;1.83;;;15.40;99.90;;;;;;5113442;28;20122;-73
2023/04/24 02:07:46;;;;;;;4.57;2.15;;;15.40;99.90;;;;;;5113245;28;20752;-72
2023/04/24 02:10:12;;;;;;;4.40;1.97;;;15.30;99.90;;;;;;5113729;28;20495;-73
2023/04/24 02:12:38;;;;;;;4.30;2.00;;;15.30;99.90;;;;;;5113376;28;20024;-72
2023/04/24 02:15:06;;;;;;;5.17;2.00;;;15.30;99.90;;;;;;5113207;28;20063;-72
2023/04/24 02:17:32;;;;;;;4.93;2.20;;;15.30;99.90;;;;;;5113439;28;20257;-71
2023/04/24 02:19:58;;;;;;;6.25;2.20;;;15.30;99.90;;;;;;5113172;28;20027;-72
2023/04/24 02:22:24;;;;;;;3.37;1.87;;;15.30;99.90;;;;;;5113121;28;20123;-72
2023/04/24 02:24:50;;;;;;;8.30;2.27;;;15.30;99.90;;;;;;5113222;28;20127;-72
2023/04/24 02:27:16;;;;;;;4.23;2.23;;;15.30;99.90;;;;;;5113127;28;20294;-72
2023/04/24 02:29:43;;;;;;;3.63;1.80;;;15.30;99.90;;;;;;5113247;28;20671;-73
2023/04/24 02:32:11;;;;;;;4.73;2.47;;;15.30;99.90;;;;;;5112822;28;20501;-72
2023/04/24 02:34:38;;;;;;;2.97;1.98;;;15.30;99.90;;;;;;5112687;28;20130;-73
2023/04/24 02:37:04;;;;;;;4.07;2.03;;;15.30;99.90;;;;;;5112940;28;20024;-72
2023/04/24 02:39:30;;;;;;;3.90;1.95;;;15.30;99.90;;;;;;5112946;28;20023;-71
2023/04/24 02:41:56;;;;;;;3.27;1.87;;;15.30;99.90;;;;;;5112756;28;20023;-76
2023/04/24 02:44:22;;;;;;;3.93;1.90;;;15.20;99.90;;;;;;5112651;28;20100;-72
2023/04/24 02:46:48;;;;;;;3.72;1.98;;;15.20;99.90;;;;;;5112927;28;20028;-71
2023/04/24 02:49:15;;;;;;;3.57;1.97;;;15.20;99.90;;;;;;5112674;28;20028;-72
2023/04/24 02:51:41;;;;;;;4.45;1.75;;;15.20;99.90;;;;;;5112333;28;20035;-71
2023/04/24 02:54:09;;;;;;;2.60;1.70;;;15.20;99.90;;;;;;5112890;28;20023;-71
2023/04/24 02:56:36;;;;;;;3.65;1.92;;;15.20;99.90;;;;;;5112370;28;20415;-72
2023/04/24 02:59:02;;;;;;;3.20;2.15;;;15.20;99.90;;;;;;5112838;28;20024;-72
2023/04/24 03:01:30;;;;;;;3.00;1.60;;;15.10;99.90;;;;;;5104565;28;20414;-71
2023/04/24 03:03:56;;;;;;;3.08;2.03;;;15.20;99.90;;;;;;5092233;28;20047;-72
2023/04/24 03:06:22;;;;;;;3.13;1.90;;;15.10;99.90;;;;;;5092575;28;20032;-72
2023/04/24 03:08:48;;;;;;;6.85;1.75;;;15.10;99.90;;;;;;5092913;28;20095;-71
2023/04/24 03:11:14;;;;;;;3.13;1.90;;;15.20;99.90;;;;;;5092767;28;20106;-71
2023/04/24 03:13:40;;;;;;;5.37;1.90;;;15.20;99.90;;;;;;5092449;28;20266;-71
2023/04/24 03:16:08;;;;;;;2.77;2.00;;;15.10;99.90;;;;;;5092654;28;20039;-70
2023/04/24 03:18:34;;;;;;;5.30;2.10;;;15.20;99.90;;;;;;5093033;28;20035;-72
2023/04/24 03:21:01;;;;;;;5.95;2.30;;;15.10;99.90;;;;;;5092656;28;20134;-71
2023/04/24 03:23:27;;;;;;;4.22;2.25;;;15.10;99.90;;;;;;5092561;28;20325;-70
2023/04/24 03:25:54;;;;;;;3.20;1.97;;;15.20;99.90;;;;;;5093066;28;20492;-72
2023/04/24 03:28:20;;;;;;;4.70;2.00;;;15.30;99.90;;;;;;5093402;28;20123;-72
2023/04/24 03:30:46;;;;;;;3.47;2.30;;;15.20;99.90;;;;;;5093417;28;20024;-71
2023/04/24 03:33:12;;;;;;;3.13;2.00;;;15.20;99.90;;;;;;5113732;28;20451;-72
2023/04/24 03:35:38;;;;;;;3.60;1.97;;;15.20;99.90;;;;;;5111558;28;20375;-72
2023/04/24 03:38:04;;;;;;;4.07;2.13;;;15.10;99.90;;;;;;5113065;28;20594;-72
2023/04/24 03:40:33;;;;;;;4.93;2.33;;;15.00;99.90;;;;;;5112637;28;20475;-72
2023/04/24 03:42:59;;;;;;;5.28;2.20;;;14.90;99.90;;;;;;5111012;28;20117;-72
2023/04/24 03:45:31;;;;;;;6.43;2.45;;;14.80;99.90;;;;;;5112676;28;20076;-72
2023/04/24 03:47:57;;;;;;;3.47;1.98;;;14.60;99.90;;;;;;5096013;28;20031;-71
2023/04/24 03:50:23;;;;;;;5.00;2.40;;;14.60;99.90;;;;;;5092140;28;20035;-71
2023/04/24 03:52:49;;;;;;;3.65;2.03;;;14.60;99.90;;;;;;5092084;28;20056;-72
2023/04/24 03:55:15;;;;;;;3.63;2.00;;;14.60;99.90;;;;;;5092529;28;20028;-72
2023/04/24 03:57:41;;;;;;;3.57;2.00;;;14.60;99.90;;;;;;5090641;28;20032;-71
2023/04/24 04:00:08;;;;;;;5.55;2.35;;;14.60;99.90;;;;;;5092153;28;20039;-72
2023/04/24 04:02:34;;;;;;;4.47;2.03;;;14.70;99.90;;;;;;5109690;28;20039;-71
2023/04/24 04:05:01;;;;;;;3.47;2.17;;;14.70;99.90;;;;;;5112378;28;20023;-72
2023/04/24 04:07:29;;;;;;;5.07;2.35;;;14.80;99.90;;;;;;5112360;28;20493;-72
2023/04/24 04:09:55;;;;;;;3.85;2.40;;;14.80;99.90;;;;;;5112648;28;20020;-72
2023/04/24 04:12:21;;;;;;;5.73;2.40;;;14.80;99.90;;;;;;5112292;28;20027;-72
2023/04/24 04:14:47;;;;;;;3.90;2.20;;;14.80;99.90;;;;;;5112128;28;20300;-71
2023/04/24 04:17:13;;;;;;;4.70;2.30;;;14.90;99.90;;;;;;5107715;28;20028;-71
2023/04/24 04:19:40;;;;;;;6.22;2.25;;;14.90;99.90;;;;;;5110417;28;20055;-70
2023/04/24 04:22:07;;;;;;;4.38;2.13;;;15.00;99.90;;;;;;5111694;28;20020;-71
2023/04/24 04:24:37;;;;;;;4.25;2.40;;;15.00;99.90;;;;;;5112159;28;20099;-69
2023/04/24 04:27:05;;;;;;;5.50;2.60;;;15.00;99.90;;;;;;5106871;28;20049;-71
2023/04/24 04:29:31;;;;;;;5.28;2.40;;;15.00;99.90;;;;;;5109468;28;20106;-70
2023/04/24 04:31:58;;;;;;;3.75;2.40;;;15.00;99.90;;;;;;5107544;28;20026;-72
2023/04/24 04:34:24;;;;;;;;;;;15.00;99.90;;;;;;5106674;28;20581;-68
2023/04/24 04:36:51;;;;;;;6.90;2.30;;;15.10;99.90;;;;;;5104240;28;20002;-68
2023/04/24 04:39:18;;;;;;;5.25;2.50;;;15.10;99.90;;;;;;5105584;28;20201;-71
2023/04/24 04:41:46;;;;;;;;;;;15.20;99.90;;;;;;5099376;28;20036;-71
2023/04/24 04:44:12;;;;;;;7.63;2.60;;;15.30;99.90;;;;;;5096252;28;19916;-71
2023/04/24 04:46:38;;;;;;;5.80;2.70;;;15.40;99.90;;;;;;5095223;28;20020;-73
2023/04/24 04:49:04;;;;;;;4.40;2.50;;;15.40;99.90;;;;;;5096492;28;20757;-71
2023/04/24 04:51:31;;;;;;;6.18;2.50;;;15.50;99.90;;;;;;5096191;28;20035;-72
2023/04/24 04:53:57;;;;;;;6.43;3.05;;;15.50;99.90;;;;;;5096814;28;20023;-72
2023/04/24 04:56:23;;;;;;;6.60;4.10;;;15.60;99.90;;;;;;5096528;28;20036;-72
2023/04/24 04:58:50;;;;;;;8.07;3.47;;;15.60;99.90;;;;;;5096328;28;20280;-72
2023/04/24 05:01:16;;;;;;;7.77;3.43;;;15.70;99.90;;;;;;5102545;28;20284;-73
2023/04/24 05:03:42;;;;;;;6.80;2.60;;;15.80;99.90;;;;;;5116856;28;20688;-71
2023/04/24 05:06:08;;;;;;;9.00;2.83;;;16.00;99.90;;;;;;5117044;28;20102;-72
2023/04/24 05:08:34;;;;;;;8.30;2.83;;;15.80;99.90;;;;;;5114901;28;20349;-72
2023/04/24 05:11:00;;;;;;;7.40;3.10;;;16.00;99.90;;;;;;5116456;28;20270;-71
2023/04/24 05:13:26;;;;;;;7.00;2.83;;;17.00;99.90;;;;;;5111431;28;20036;-71
2023/04/24 05:15:52;;;;;;;8.57;2.90;;;18.30;99.90;;;;;;5116378;28;20039;-72
2023/04/24 05:18:18;;;;;;;6.78;2.85;;;19.50;99.90;;;;;;5105097;28;20028;-73
2023/04/24 05:20:44;;;;;;;6.47;2.70;;;20.30;99.90;;;;;;5096746;28;20468;-72
2023/04/24 05:23:11;;;;;;;5.18;2.00;;;22.10;99.90;;;;;;5115052;28;20019;-72
2023/04/24 05:25:39;;;;;;;3.50;2.00;;;24.20;99.90;;;;;;5116884;28;20417;-73
2023/04/24 05:28:05;;;;;;;7.72;2.53;;;25.40;99.90;;;;;;5116189;28;20079;-72
2023/04/24 05:30:31;;;;;;;4.78;2.38;;;24.80;99.90;;;;;;5116581;28;20027;-71
2023/04/24 05:32:57;;;;;;;5.53;2.20;;;26.50;99.30;;;;;;5116139;28;20020;-73
2023/04/24 05:35:23;;;;;;;6.82;2.58;;;27.90;97.90;;;;;;5116066;28;20035;-73
2023/04/24 05:37:49;;;;;;;11.82;2.63;;;28.00;96.80;;;;;;5115594;28;20064;-73
2023/04/24 05:40:15;;;;;;;9.30;2.25;;;28.10;96.30;;;;;;5116417;28;20027;-73
2023/04/24 05:42:41;;;;;;;4.55;2.10;;;28.20;95.60;;;;;;5115631;28;20050;-73
2023/04/24 05:45:09;;;;;;;5.15;1.90;;;28.80;95.00;;;;;;5116653;28;20015;-73
2023/04/24 05:47:35;;;;;;;8.43;2.05;;;29.50;93.90;;;;;;5115671;28;20083;-73
2023/04/24 05:50:01;;;;;;;11.45;2.10;;;30.30;93.00;;;;;;5115121;28;20034;-73
2023/04/24 05:52:27;;;;;;;6.38;2.03;;;30.00;92.20;;;;;;5115071;28;20024;-72
2023/04/24 05:54:53;;;;;;;8.45;1.67;;;30.40;92.00;;;;;;5113375;28;20028;-70
2023/04/24 05:57:19;;;;;;;;;;;31.30;90.40;;;;;;5115429;28;20102;-72
2023/04/24 05:59:45;;;;;;;7.50;1.98;;;30.60;90.20;;;;;;5114975;28;19950;-73
2023/04/24 06:02:11;;;;;;;;;;;30.70;90.00;;;;;;5115269;28;20024;-73
2023/04/24 06:04:37;;;;;;;4.90;2.08;;;29.70;90.00;;;;;;5114894;28;19965;-71
2023/04/24 06:07:03;;;;;;;7.70;2.05;;;30.80;90.10;;;;;;5114596;28;20379;-70
2023/04/24 06:09:29;;;;;;;20.13;2.22;;;31.90;89.20;;;;;;5115005;28;20062;-70
2023/04/24 06:11:57;;;;;;;4.53;2.03;;;33.00;89.10;;;;;;5114389;28;20031;-69
2023/04/24 06:14:23;;;;;;;5.13;1.92;;;33.80;85.70;;;;;;5114315;28;20478;-71
2023/04/24 06:16:49;;;;;;;4.13;1.75;;;33.50;84.60;;;;;;5114739;28;20058;-69
2023/04/24 06:19:15;;;;;;;4.95;1.80;;;32.20;85.10;;;;;;5114989;28;20027;-71
2023/04/24 06:21:41;;;;;;;5.78;1.70;;;31.70;86.50;;;;;;5114378;28;20031;-71
2023/04/24 06:24:07;;;;;;;4.93;1.65;;;31.20;86.90;;;;;;5114499;28;20046;-71
2023/04/24 06:26:33;;;;;;;4.20;1.60;;;30.90;86.60;;;;;;5114786;28;20028;-71
2023/04/24 06:29:00;;;;;;;14.15;2.33;;;32.00;85.50;;;;;;5114641;28;20086;-72
2023/04/24 06:31:26;;;;;;;5.47;2.10;;;33.00;85.80;;;;;;5114691;28;20557;-70
2023/04/24 06:33:52;;;;;;;7.63;1.75;;;31.80;87.30;;;;;;5114521;28;20052;-72
2023/04/24 06:36:19;;;;;;;5.85;1.95;;;31.30;87.80;;;;;;5114263;28;20074;-70
2023/04/24 06:38:45;;;;;;;9.10;2.58;;;33.10;85.20;;;;;;5114016;28;20031;-72
2023/04/24 06:41:12;;;;;;;6.68;2.20;;;33.40;84.10;;;;;;5114406;28;20031;-69
2023/04/24 06:43:38;;;;;;;4.20;1.60;;;33.90;83.20;;;;;;5112627;28;20047;-70
2023/04/24 06:46:05;;;;;;;28.02;3.53;;;33.40;82.30;;;;;;5114005;28;20030;-69
2023/04/24 06:48:31;;;;;;;7.07;1.90;;;35.50;85.90;;;;;;5113669;28;20053;-71
2023/04/24 06:50:57;;;;;;;7.38;2.33;;;35.70;79.10;;;;;;5114312;27;20031;-69
2023/04/24 06:53:23;;;;;;;5.03;2.17;;;33.80;84.40;;;;;;5113606;28;20034;-71
2023/04/24 06:55:49;;;;;;;4.18;1.83;;;33.80;81.60;;;;;;5114013;28;20046;-70
2023/04/24 06:58:15;;;;;;;15.82;2.47;;;32.70;82.80;;;;;;5113686;28;20051;-71
2023/04/24 07:00:41;;;;;;;4.32;2.05;;;33.10;83.10;;;;;;5113538;28;20502;-71
2023/04/24 07:03:08;;;;;;;6.85;2.17;;;34.00;81.10;;;;;;5113655;28;20534;-73
2023/04/24 07:05:34;;;;;;;5.93;2.05;;;34.10;81.10;;;;;;5113945;28;20468;-71
2023/04/24 07:08:01;;;;;;;3.42;1.80;;;33.90;80.80;;;;;;5113645;28;20475;-70
2023/04/24 07:10:28;;;;;;;6.18;2.30;;;34.60;79.50;;;;;;5113453;28;20438;-71
2023/04/24 07:12:56;;;;;;;4.82;2.20;;;33.70;81.10;;;;;;5114064;28;20058;-71
2023/04/24 07:15:23;;;;;;;7.10;2.40;;;33.90;80.20;;;;;;5113266;28;20522;-71
2023/04/24 07:17:50;;;;;;;4.55;2.30;;;34.60;80.60;;;;;;5113588;27;20103;-71
2023/04/24 07:20:16;;;;;;;10.82;2.20;;;33.80;79.80;;;;;;5113501;28;20057;-71
2023/04/24 07:22:42;;;;;;;3.80;2.20;;;33.00;81.70;;;;;;5113271;28;20049;-71
2023/04/24 07:25:08;;;;;;;4.80;2.22;;;32.30;90.70;;;;;;5113177;28;20452;-71
2023/04/24 07:27:36;;;;;;;6.90;1.92;;;31.70;84.30;;;;;;5113302;28;20469;-71
2023/04/24 07:30:06;;;;;;;7.28;2.50;;;30.30;86.50;;;;;;5113454;28;20030;-69
2023/04/24 07:32:32;;;;;;;4.22;2.40;;;29.80;89.00;;;;;;5112830;28;20032;-71
2023/04/24 07:34:58;;;;;;;8.27;2.42;;;28.70;90.30;;;;;;5113106;28;20043;-70
2023/04/24 07:37:25;;;;;;;3.40;2.50;;;28.50;91.10;;;;;;5112953;28;20027;-69
2023/04/24 07:39:51;;;;;;;5.53;2.70;;;27.50;92.00;;;;;;5113038;28;20429;-70
2023/04/24 07:42:17;;;;;;;6.00;2.95;;;27.70;92.60;;;;;;5112400;28;20043;-69
2023/04/24 07:44:43;;;;;;;8.93;2.83;;;27.50;93.00;;;;;;5112675;28;20035;-70
2023/04/24 07:47:11;;;;;;;4.63;2.55;;;26.80;93.90;;;;;;5112563;28;20077;-69
2023/04/24 07:49:37;;;;;;;8.52;3.20;;;26.30;94.70;;;;;;5112793;28;20026;-69
2023/04/24 07:52:03;;;;;;;11.35;3.47;;;26.40;94.90;;;;;;5111995;28;20027;-71
2023/04/24 07:54:30;;;;;;;4.93;2.72;;;26.10;95.40;;;;;;5112188;28;20024;-69
2023/04/24 07:56:55;;;;;;;;;;;26.20;95.60;;;;;;5112607;28;20135;-69
2023/04/24 07:59:21;;;;;;;;;;;26.10;96.20;;;;;;5112843;28;20336;-69
2023/04/24 08:01:47;;;;;;;6.82;2.80;;;25.90;96.70;;;;;;5112104;28;19910;-71
2023/04/24 08:04:13;;;;;;;5.47;3.05;;;26.10;97.00;;;;;;5112278;28;20028;-70
2023/04/24 08:06:39;;;;;;;7.72;3.20;;;25.60;97.60;;;;;;5110362;28;20023;-70
2023/04/24 08:09:05;;;;;;;6.47;3.13;;;25.50;98.00;;;;;;5111983;28;20019;-70
2023/04/24 08:11:32;;;;;;;5.75;2.75;;;25.50;98.40;;;;;;5111719;28;20093;-70
2023/04/24 08:13:58;;;;;;;7.97;2.75;;;25.50;98.40;;;;;;5111482;28;20034;-69
2023/04/24 08:16:24;;;;;;;5.25;2.88;;;25.10;98.90;;;;;;5112015;28;20416;-67
2023/04/24 08:18:53;;;;;;;5.75;3.05;;;24.80;99.70;;;;;;5106803;28;20025;-67
2023/04/24 08:21:20;;;;;;;7.55;3.22;;;24.80;99.90;;;;;;5109850;28;20085;-69
2023/04/24 08:23:46;;;;;;;8.40;2.95;;;24.60;99.90;;;;;;5091717;28;20110;-69
2023/04/24 08:26:14;;;;;;;7.45;3.40;;;24.40;99.90;;;;;;5092034;28;20081;-69
2023/04/24 08:28:44;;;;;;;7.38;3.45;;;24.00;99.90;;;;;;5092726;28;20034;-67
2023/04/24 08:31:11;;;;;;;5.68;3.38;;;23.80;99.90;;;;;;5105355;28;20028;-71
2023/04/24 08:33:37;;;;;;;8.13;3.15;;;23.90;99.90;;;;;;5104120;28;20085;-68
2023/04/24 08:36:05;;;;;;;5.85;2.65;;;24.20;99.90;;;;;;5111406;28;20118;-71
2023/04/24 08:38:31;;;;;;;5.55;3.50;;;24.40;99.90;;;;;;5112183;28;20051;-72
2023/04/24 08:40:59;;;;;;;;;;;24.80;99.90;;;;;;5113076;28;20027;-71
2023/04/24 08:43:26;;;;;;;7.50;2.58;;;24.10;99.90;;;;;;5112069;28;19916;-71
2023/04/24 08:45:55;;;;;;;7.90;3.78;;;24.10;99.90;;;;;;5112192;28;20034;-72
2023/04/24 08:48:23;;;;;;;8.93;3.67;;;23.70;99.90;;;;;;5112340;28;20019;-72
2023/04/24 08:50:50;;;;;;;4.30;3.00;;;23.50;99.90;;;;;;5112011;28;20031;-70
2023/04/24 08:53:18;;;;;;;6.75;3.10;;;23.50;99.90;;;;;;5110194;28;20027;-71
2023/04/24 08:55:46;;;;;;;9.85;3.97;;;23.30;99.90;;;;;;5112039;28;20489;-72
2023/04/24 08:58:12;;;;;;;7.00;3.50;;;23.30;99.90;;;;;;5111912;28;20084;-71
2023/04/24 09:00:39;;;;;;;8.63;3.00;;;23.40;99.90;;;;;;5111423;28;20027;-70
2023/04/24 09:03:06;;;;;;;7.60;2.90;;;23.40;99.90;;;;;;5111676;28;20026;-70
2023/04/24 09:05:33;;;;;;;9.63;4.22;;;23.60;99.90;;;;;;5112242;28;20028;-71
2023/04/24 09:07:59;;;;;;;;;;;23.40;99.90;;;;;;5112031;28;20019;-71
2023/04/24 09:10:26;;;;;;;5.82;3.00;;;23.30;99.90;;;;;;5111976;28;19904;-72
2023/04/24 09:12:52;;;;;;;6.82;3.08;;;23.60;99.90;;;;;;5114273;28;20027;-71
2023/04/24 09:15:20;;;;;;;7.57;2.97;;;23.50;99.90;;;;;;5115997;28;20375;-71
2023/04/24 09:17:46;;;;;;;6.13;2.78;;;23.70;99.90;;;;;;5115884;28;20019;-72
2023/04/24 09:20:13;;;;;;;6.63;3.08;;;23.50;99.90;;;;;;5115711;28;20016;-70
2023/04/24 09:22:39;;;;;;;8.40;4.05;;;23.20;99.90;;;;;;5115204;28;20372;-69
2023/04/24 09:25:08;;;;;;;6.68;3.50;;;22.90;99.90;;;;;;5115476;28;20023;-70
2023/04/24 09:27:35;;;;;;;6.70;3.47;;;22.60;99.90;;;;;;5114253;28;20035;-69
2023/04/24 09:30:02;;;;;;;4.88;3.10;;;22.60;99.90;;;;;;5115399;28;20425;-71
2023/04/24 09:32:29;;;;;;;10.38;3.05;;;23.00;99.90;;;;;;5115323;28;20077;-71
2023/04/24 09:35:12;;;;;;;9.85;4.40;;;23.00;99.90;;;;;;5115386;27;20119;-71
2023/04/24 09:37:46;;;;;;;6.43;3.78;;;23.00;99.90;;;;;;5114926;28;20382;-70
2023/04/24 09:40:13;;;;;;;6.43;3.53;;;22.70;99.90;;;;;;5115504;28;20035;-70
2023/04/24 09:42:43;;;;;;;6.78;3.20;;;22.80;99.90;;;;;;5114776;28;20509;-69
2023/04/24 09:45:13;;;;;;;6.38;3.30;;;22.70;99.90;;;;;;5114875;28;20095;-70
2023/04/24 09:47:40;;;;;;;7.22;3.60;;;22.10;99.90;;;;;;5114915;28;20023;-70
2023/04/24 09:50:15;;;;;;;9.27;3.42;;;21.70;99.90;;;;;;5113491;28;20031;-70
2023/04/24 09:52:42;;;;;;;8.70;3.80;;;21.70;99.90;;;;;;5114769;28;20116;-70
2023/04/24 09:55:20;;;;;;;6.03;3.30;;;21.90;99.90;;;;;;5114940;28;20205;-71
2023/04/24 09:57:50;;;;;;;9.10;4.00;;;22.10;99.90;;;;;;5114772;28;20066;-71
2023/04/24 10:00:29;;;;;;;7.47;3.40;;;22.30;99.90;;;;;;5115075;28;20115;-68
2023/04/24 10:03:00;;;;;;;7.55;3.00;;;22.10;99.90;;;;;;5114350;28;20069;-71
2023/04/24 10:05:35;;;;;;;5.65;3.25;;;21.90;99.90;;;;;;5114393;28;20024;-70
2023/04/24 10:08:04;;;;;;;9.82;3.30;;;22.00;99.90;;;;;;5114477;27;20138;-69
2023/04/24 10:10:32;;;;;;;9.65;2.88;;;21.80;99.90;;;;;;5114614;28;20069;-70
2023/04/24 10:12:59;;;;;;;11.18;3.20;;;21.90;99.90;;;;;;5114399;28;20019;-70
2023/04/24 10:15:26;;;;;;;6.68;3.90;;;22.40;99.90;;;;;;5114673;28;20035;-70
2023/04/24 10:17:53;;;;;;;10.65;4.30;;;22.40;99.90;;;;;;5114463;28;20467;-70
2023/04/24 10:20:28;;;;;;;14.07;3.97;;;22.40;99.90;;;;;;5114842;28;20157;-69
2023/04/24 10:22:55;;;;;;;7.73;4.37;;;22.70;99.90;;;;;;5113605;28;20020;-71
2023/04/24 10:25:23;;;;;;;10.43;4.50;;;22.60;99.90;;;;;;5113944;28;20023;-70
2023/04/24 10:27:50;;;;;;;5.18;2.97;;;22.60;99.90;;;;;;5114153;27;20028;-71
2023/04/24 10:30:18;;;;;;;7.25;3.03;;;22.40;99.90;;;;;;5114288;28;20020;-71
2023/04/24 10:32:44;;;;;;;8.75;3.22;;;22.30;99.90;;;;;;5113914;28;20027;-70
2023/04/24 10:35:13;;;;;;;5.15;2.80;;;22.30;99.90;;;;;;5114219;28;20044;-71
2023/04/24 10:38:06;;;;;;;6.95;3.30;;;22.30;99.90;;;;;;5113872;28;20020;-70
2023/04/24 10:40:34;;;;;;;9.60;3.25;;;22.30;99.90;;;;;;5111156;28;20051;-70
2023/04/24 10:43:09;;;;;;;4.80;2.70;;;22.60;99.90;;;;;;5113932;28;20143;-70
2023/04/24 10:45:37;;;;;;;6.82;3.00;;;22.20;99.90;;;;;;5114360;28;20023;-70
2023/04/24 10:48:10;;;;;;;6.60;3.00;;;22.10;99.90;;;;;;5114096;28;20034;-70
2023/04/24 10:50:47;;;;;;;8.30;3.70;;;22.10;99.90;;;;;;5113906;28;20031;-70
2023/04/24 10:53:19;;;;;;;8.98;3.60;;;22.10;99.90;;;;;;5112786;28;20032;-70
2023/04/24 10:55:48;;;;;;;9.93;3.45;;;22.50;99.90;;;;;;5114259;28;20059;-71
2023/04/24 10:58:16;;;;;;;7.03;3.28;;;22.60;99.90;;;;;;5113901;28;20042;-70
2023/04/24 11:00:46;;;;;;;5.30;3.22;;;22.30;99.90;;;;;;5114400;28;20020;-70
2023/04/24 11:03:34;;;;;;;8.82;3.63;;;22.50;99.90;;;;;;5114277;28;20073;-71
2023/04/24 11:06:08;;;;;;;5.30;3.38;;;22.50;99.90;;;;;;5114367;28;20031;-70
2023/04/24 11:08:45;;;;;;;23.42;4.22;;;22.60;99.90;;;;;;5113651;28;20035;-71
2023/04/24 11:11:18;;;;;;;10.57;3.80;;;22.80;99.90;;;;;;5114150;28;20035;-70
2023/04/24 11:13:56;;;;;;;8.05;3.30;;;22.30;99.90;;;;;;5114339;28;20031;-71
2023/04/24 11:16:30;;;;;;;5.75;3.90;;;22.30;99.90;;;;;;5113584;28;20040;-71
2023/04/24 11:19:02;;;;;;;8.95;3.90;;;22.70;99.90;;;;;;5114503;28;20474;-71
2023/04/24 11:22:03;;;;;;;6.93;3.90;;;22.20;99.90;;;;;;5114487;28;20032;-70
2023/04/24 11:24:50;;;;;;;6.70;3.70;;;21.80;99.90;;;;;;5114346;28;20027;-71
2023/04/24 11:27:22;;;;;;;8.50;4.20;;;21.70;99.90;;;;;;5114113;28;20043;-72
2023/04/24 11:29:57;;;;;;;7.45;4.80;;;21.90;99.90;;;;;;5113656;28;20027;-71
2023/04/24 11:32:42;;;;;;;7.00;3.72;;;22.20;99.90;;;;;;5113950;28;20039;-72
2023/04/24 11:35:13;;;;;;;7.70;4.15;;;22.30;99.90;;;;;;5113159;28;20075;-70
2023/04/24 11:37:41;;;;;;;5.55;3.42;;;22.40;99.90;;;;;;5113317;28;20384;-71
2023/04/24 11:40:10;;;;;;;7.15;3.92;;;22.40;99.90;;;;;;5113736;28;20058;-70
2023/04/24 11:42:44;;;;;;;7.07;4.07;;;22.50;99.90;;;;;;5113551;28;20116;-71
2023/04/24 11:45:14;;;;;;;8.43;4.20;;;22.30;99.90;;;;;;5114090;28;20020;-71
2023/04/24 11:47:40;;;;;;;9.95;4.80;;;22.50;99.90;;;;;;5113573;28;20047;-71
2023/04/24 11:50:09;;;;;;;6.55;4.50;;;22.60;99.90;;;;;;5113630;28;20027;-70
2023/04/24 11:52:43;;;;;;;6.95;3.78;;;22.50;99.90;;;;;;5112936;28;20019;-70
2023/04/24 11:55:15;;;;;;;14.00;4.30;;;22.50;99.90;;;;;;5113518;28;20023;-72
2023/04/24 11:57:45;;;;;;;10.35;4.28;;;22.50;99.90;;;;;;5113258;28;20030;-70
2023/04/24 12:00:23;;;;;;;6.43;3.60;;;23.00;99.90;;;;;;5113641;28;20023;-72
2023/04/24 12:02:50;;;;;;;8.05;4.05;;;23.40;99.90;;;;;;5113210;28;20099;-71
2023/04/24 12:05:24;;;;;;;7.25;3.67;;;23.30;99.90;;;;;;5113107;28;20030;-71
2023/04/24 12:07:50;;;;;;;11.10;3.88;;;23.20;99.90;;;;;;5111689;28;20032;-71
2023/04/24 12:10:24;;;;;;;9.05;3.30;;;22.80;99.90;;;;;;5113626;28;20473;-71
2023/04/24 12:12:51;;;;;;;8.27;4.00;;;22.40;99.90;;;;;;5113388;28;20023;-71
2023/04/24 12:15:19;;;;;;;9.55;3.92;;;22.60;99.90;;;;;;5112926;28;20080;-70
2023/04/24 12:17:45;;;;;;;5.60;3.42;;;23.20;99.90;;;;;;5113536;28;20031;-70
2023/04/24 12:20:12;;;;;;;10.13;4.07;;;22.90;99.90;;;;;;5113727;28;20048;-71
2023/04/24 12:22:48;;;;;;;6.70;3.83;;;23.10;99.90;;;;;;5113095;28;20080;-71
2023/04/24 12:25:18;;;;;;;10.50;3.65;;;23.30;99.90;;;;;;5113809;28;20089;-71
2023/04/24 12:27:46;;;;;;;7.93;3.65;;;23.00;99.90;;;;;;5111851;28;20064;-72
2023/04/24 12:30:14;;;;;;;6.55;3.47;;;23.20;99.90;;;;;;5111878;28;20032;-72
2023/04/24 12:32:49;;;;;;;6.20;3.30;;;23.10;99.90;;;;;;5113248;28;20020;-70
2023/04/24 12:35:23;;;;;;;8.80;3.30;;;22.90;99.90;;;;;;5113405;28;20486;-72
2023/04/24 12:37:50;;;;;;;9.82;3.85;;;22.60;99.90;;;;;;5113055;28;20020;-76
2023/04/24 12:40:19;;;;;;;6.97;3.70;;;22.70;99.90;;;;;;5113204;28;20156;-75
2023/04/24 12:42:48;;;;;;;7.60;4.18;;;22.80;99.90;;;;;;5112864;28;20043;-75
2023/04/24 12:45:16;;;;;;;8.95;3.80;;;23.10;99.90;;;;;;5112926;28;20125;-71
2023/04/24 12:47:43;;;;;;;8.43;4.15;;;22.80;99.90;;;;;;5114574;28;20016;-71
2023/04/24 12:50:11;;;;;;;8.70;3.53;;;23.00;99.90;;;;;;5116507;28;20580;-72